Time;durP1;ratioP1;P1;durP2;ratioP2;P2;SDS_P1;SDS_P2;PMS_P1;PMS_P2;Temp;Humidity;BMP_temperature;BMP_pressure;BME280_temperature;BME280_humidity;BME280_pressure;Samples;Min_cycle;Max_cycle;Signal;HPM_P1;HPM_P2
2023/09/20 00:01:51;;;;;;;15.90;8.75;;;;;;;14.27;66.41;100046.97;4939463;28;20174;-71
2023/09/20 00:04:21;;;;;;;15.85;7.75;;;;;;;14.22;66.21;100042.72;4920574;29;20055;-69
2023/09/20 00:06:48;;;;;;;19.67;8.45;;;;;;;14.22;66.31;100045.34;4940945;28;20047;-69
2023/09/20 00:09:16;;;;;;;22.88;9.40;;;;;;;14.20;66.39;100049.72;4940616;28;20043;-70
2023/09/20 00:11:44;;;;;;;24.23;9.32;;;;;;;14.10;66.41;100028.97;4940977;28;20048;-70
2023/09/20 00:14:11;;;;;;;32.35;9.57;;;;;;;14.18;66.40;100041.91;4937903;28;20055;-69
2023/09/20 00:16:37;;;;;;;37.67;9.77;;;;;;;14.10;66.28;100030.75;4908518;29;20050;-70
2023/09/20 00:19:03;;;;;;;29.45;8.98;;;;;;;14.09;66.25;100029.00;4938820;28;20498;-70
2023/09/20 00:21:29;;;;;;;31.25;10.15;;;;;;;14.18;66.42;100038.44;4938308;28;20066;-71
2023/09/20 00:23:55;;;;;;;31.70;9.32;;;;;;;14.10;66.52;100028.13;4940367;28;20043;-71
2023/09/20 00:26:21;;;;;;;27.30;8.55;;;;;;;14.11;66.33;100029.84;4924029;29;20058;-71
2023/09/20 00:28:50;;;;;;;25.00;9.05;;;;;;;14.16;66.43;100039.31;4921074;29;20039;-70
2023/09/20 00:31:16;;;;;;;26.50;9.23;;;;;;;14.15;66.24;100045.44;4937067;28;20210;-69
2023/09/20 00:33:43;;;;;;;22.35;8.32;;;;;;;14.02;66.39;100009.94;4937761;28;20090;-70
2023/09/20 00:36:18;;;;;;;21.50;8.57;;;;;;;14.15;66.29;100040.22;4922465;29;20174;-69
2023/09/20 00:38:45;;;;;;;22.77;8.90;;;;;;;13.97;66.38;100012.66;4937385;28;20557;-70
2023/09/20 00:41:11;;;;;;;20.55;8.60;;;;;;;14.10;66.29;100039.44;4940629;28;20070;-73
2023/09/20 00:43:38;;;;;;;19.30;8.60;;;;;;;14.07;66.38;100033.41;4940399;28;20514;-72
2023/09/20 00:46:04;;;;;;;23.15;8.25;;;;;;;14.04;66.19;100023.84;4940955;28;20043;-72
2023/09/20 00:48:32;;;;;;;20.70;8.32;;;;;;;14.01;66.30;100021.31;4931086;29;20090;-73
2023/09/20 00:50:58;;;;;;;27.38;9.65;;;;;;;14.16;66.26;100048.91;4940709;28;20442;-72
2023/09/20 00:53:25;;;;;;;16.08;7.97;;;;;;;14.12;66.13;100042.03;4926319;29;20042;-72
2023/09/20 00:55:52;;;;;;;25.40;8.88;;;;;;;14.05;66.09;100036.03;4921724;29;20149;-74
2023/09/20 00:58:20;;;;;;;23.67;8.77;;;;;;;14.01;66.15;100018.69;4927521;29;20138;-73
2023/09/20 01:00:46;;;;;;;24.02;8.70;;;;;;;14.01;66.06;100023.94;4928058;29;20139;-72
2023/09/20 01:03:17;;;;;;;20.98;9.32;;;;;;;13.87;66.02;99998.03;4927976;28;20474;-72
2023/09/20 01:05:46;;;;;;;27.83;9.32;;;;;;;14.12;66.12;100032.41;4941739;28;20054;-73
2023/09/20 01:08:13;;;;;;;18.67;9.18;;;;;;;14.15;65.94;100042.84;4943679;28;20043;-72
2023/09/20 01:10:40;;;;;;;30.33;9.55;;;;;;;14.06;66.06;100032.53;4942199;28;20043;-72
2023/09/20 01:13:09;;;;;;;30.05;9.15;;;;;;;14.06;66.00;100023.84;4928671;29;20051;-72
2023/09/20 01:15:37;;;;;;;21.88;8.38;;;;;;;14.06;66.11;100019.44;4928734;29;20047;-72
2023/09/20 01:18:04;;;;;;;22.23;8.20;;;;;;;14.16;65.93;100036.72;4928056;28;20044;-72
2023/09/20 01:20:35;;;;;;;19.17;8.35;;;;;;;14.09;65.80;100029.00;4926738;29;20151;-72
2023/09/20 01:23:02;;;;;;;20.95;8.13;;;;;;;13.98;65.78;100014.38;4927011;29;20043;-68
2023/09/20 01:25:32;;;;;;;23.67;8.68;;;;;;;14.08;65.92;100033.38;4929263;29;20047;-70
2023/09/20 01:28:00;;;;;;;22.58;8.55;;;;;;;13.86;65.92;100002.38;4929022;28;20759;-71
2023/09/20 01:30:28;;;;;;;16.00;8.20;;;;;;;14.12;65.69;100042.88;4927062;29;20039;-70
2023/09/20 01:32:59;;;;;;;14.68;8.00;;;;;;;14.08;65.79;100040.38;4926644;29;20745;-71
2023/09/20 01:35:26;;;;;;;21.55;8.88;;;;;;;14.11;65.48;100038.53;4944107;28;20044;-70
2023/09/20 01:37:53;;;;;;;19.42;8.82;;;;;;;13.98;65.65;100024.00;4941489;28;20044;-71
2023/09/20 01:40:23;;;;;;;20.13;8.57;;;;;;;14.01;65.67;100035.25;4940528;28;20070;-70
2023/09/20 01:42:50;;;;;;;25.63;9.02;;;;;;;14.03;65.64;100035.19;4926976;29;20054;-71
2023/09/20 01:45:18;;;;;;;16.77;8.70;;;;;;;13.96;65.57;100026.63;4928962;29;20036;-70
2023/09/20 01:47:51;;;;;;;24.92;8.43;;;;;;;13.96;65.50;100023.16;4926508;29;20146;-69
2023/09/20 01:50:20;;;;;;;28.20;9.07;;;;;;;14.06;65.58;100037.75;4927541;29;20039;-70
2023/09/20 01:52:48;;;;;;;24.58;8.70;;;;;;;13.82;65.50;99994.66;4940172;28;20043;-71
2023/09/20 01:55:18;;;;;;;21.67;7.95;;;;;;;13.92;65.66;100008.41;4940103;28;20048;-73
2023/09/20 01:57:45;;;;;;;19.25;8.90;;;;;;;14.00;65.52;100030.91;4940519;28;20043;-69
2023/09/20 02:00:22;;;;;;;21.70;8.40;;;;;;;14.04;65.63;100047.41;4926800;29;20039;-71
2023/09/20 02:02:51;;;;;;;27.40;8.75;;;;;;;13.95;65.57;100029.28;4928335;29;20050;-71
2023/09/20 02:05:17;;;;;;;26.25;9.13;;;;;;;13.93;65.63;100024.06;4925967;29;20035;-70
2023/09/20 02:07:48;;;;;;;23.55;8.88;;;;;;;14.03;65.55;100035.19;4941716;28;20043;-71
2023/09/20 02:10:16;;;;;;;27.20;8.70;;;;;;;13.98;65.55;100029.22;4942968;28;20039;-72
2023/09/20 02:12:56;;;;;;;21.52;8.48;;;;;;;14.00;65.63;100032.69;4923861;29;20693;-73
2023/09/20 02:15:31;;;;;;;22.02;8.95;;;;;;;14.00;65.49;100038.75;4928318;29;20044;-71
2023/09/20 02:17:58;;;;;;;31.05;8.18;;;;;;;13.99;65.56;100041.41;4942357;28;20533;-72
2023/09/20 02:20:25;;;;;;;20.25;8.95;;;;;;;13.93;65.52;100037.13;4941213;28;20067;-72
2023/09/20 02:22:54;;;;;;;22.42;8.77;;;;;;;13.95;65.59;100034.50;4942003;28;20351;-73
2023/09/20 02:25:21;;;;;;;26.50;9.25;;;;;;;13.93;65.60;100050.22;4927772;29;20442;-72
2023/09/20 02:27:52;;;;;;;15.98;8.25;;;;;;;13.85;65.60;100033.81;4925226;29;20074;-72
2023/09/20 02:30:19;;;;;;;26.50;9.10;;;;;;;13.89;65.64;100043.34;4926206;29;20581;-73
2023/09/20 02:32:53;;;;;;;23.38;9.00;;;;;;;13.85;65.52;100036.44;4942547;28;20407;-73
2023/09/20 02:35:20;;;;;;;23.95;8.73;;;;;;;13.86;65.67;100043.41;4922305;29;20043;-73
2023/09/20 02:37:47;;;;;;;28.25;8.75;;;;;;;13.77;65.64;100031.34;4926191;29;20528;-73
2023/09/20 02:40:14;;;;;;;19.13;9.15;;;;;;;13.77;65.62;100027.84;4939880;28;20095;-72
2023/09/20 02:42:51;;;;;;;25.63;8.52;;;;;;;13.81;65.64;100040.84;4937781;28;20039;-72
2023/09/20 02:45:19;;;;;;;20.20;8.88;;;;;;;13.78;65.65;100035.69;4927782;29;20710;-72
2023/09/20 02:47:48;;;;;;;26.08;8.57;;;;;;;13.73;65.73;100029.69;4926000;29;20536;-72
2023/09/20 02:50:18;;;;;;;24.63;9.45;;;;;;;13.72;65.81;100030.56;4941909;28;20039;-73
2023/09/20 02:52:46;;;;;;;21.45;8.30;;;;;;;13.71;65.69;100041.91;4920698;29;20044;-72
2023/09/20 02:55:17;;;;;;;26.25;9.13;;;;;;;13.63;65.89;100028.09;4907616;29;20043;-72
2023/09/20 02:57:44;;;;;;;24.33;8.87;;;;;;;13.67;65.90;100040.25;4938983;28;20048;-71
2023/09/20 03:00:16;;;;;;;24.65;8.82;;;;;;;13.66;65.86;100033.28;4925357;29;20299;-71
2023/09/20 03:02:47;;;;;;;23.85;9.30;;;;;;;13.49;66.16;100008.31;4920934;29;20051;-72
2023/09/20 03:05:21;;;;;;;20.38;8.63;;;;;;;13.66;65.93;100028.06;4938594;28;20054;-72
2023/09/20 03:07:50;;;;;;;27.30;8.75;;;;;;;13.52;65.86;100017.84;4922237;29;20095;-72
2023/09/20 03:10:24;;;;;;;27.58;8.65;;;;;;;13.61;66.00;100027.25;4939219;28;20585;-72
2023/09/20 03:12:52;;;;;;;29.98;9.30;;;;;;;12.96;65.52;99928.16;4930883;29;20086;-71
2023/09/20 03:15:23;;;;;;;24.63;9.23;;;;;;;13.60;65.99;100026.41;4938437;28;20055;-72
2023/09/20 03:17:52;;;;;;;19.98;8.80;;;;;;;13.50;65.97;100009.16;4909067;29;20048;-72
2023/09/20 03:20:22;;;;;;;24.05;9.13;;;;;;;13.59;66.17;100026.44;4924574;29;20078;-74
2023/09/20 03:22:53;;;;;;;28.90;9.43;;;;;;;13.57;66.07;100020.41;4910214;29;20048;-71
2023/09/20 03:25:24;;;;;;;25.40;9.43;;;;;;;13.64;66.17;100029.84;4919731;29;20043;-72
2023/09/20 03:27:53;;;;;;;28.08;9.10;;;;;;;13.59;66.18;100022.09;4927117;29;20043;-71
2023/09/20 03:30:20;;;;;;;32.70;9.10;;;;;;;13.59;66.02;100021.19;4941670;28;20486;-73
2023/09/20 03:32:48;;;;;;;31.80;9.40;;;;;;;13.67;66.02;100021.94;4926197;29;20043;-72
2023/09/20 03:35:14;;;;;;;36.00;9.85;;;;;;;13.64;66.07;100014.13;4925141;29;20130;-72
2023/09/20 03:37:44;;;;;;;25.52;8.95;;;;;;;13.78;65.76;100027.84;4920215;29;20526;-72
2023/09/20 03:40:21;;;;;;;36.90;10.25;;;;;;;13.81;65.84;100016.47;4925861;29;20048;-73
2023/09/20 03:42:49;;;;;;;32.70;10.48;;;;;;;13.75;65.89;100001.75;4939671;28;20067;-71
2023/09/20 03:45:16;;;;;;;31.50;9.05;;;;;;;13.75;65.79;99991.28;4921837;29;20054;-73
2023/09/20 03:47:53;;;;;;;23.83;9.02;;;;;;;14.04;65.65;100030.84;4940771;28;20407;-72
2023/09/20 03:50:22;;;;;;;26.65;9.40;;;;;;;13.98;65.41;100008.28;4908390;29;20087;-73
2023/09/20 03:52:49;;;;;;;27.63;10.00;;;;;;;14.07;65.41;100008.09;4937455;28;20040;-71
2023/09/20 03:55:16;;;;;;;30.27;9.15;;;;;;;14.15;65.29;100006.19;4924506;29;20724;-74
2023/09/20 03:57:44;;;;;;;24.50;9.10;;;;;;;14.13;65.12;99989.66;4937351;28;20454;-72
2023/09/20 04:00:11;;;;;;;26.38;9.55;;;;;;;14.48;65.02;100030.81;4942431;28;20067;-71
2023/09/20 04:02:48;;;;;;;23.27;8.90;;;;;;;14.54;64.75;100021.09;4924221;29;20079;-72
2023/09/20 04:05:16;;;;;;;33.75;9.23;;;;;;;14.69;64.46;100032.16;4924785;29;20086;-73
2023/09/20 04:07:44;;;;;;;29.92;8.95;;;;;;;14.78;64.40;100031.09;4938092;28;20540;-72
2023/09/20 04:10:12;;;;;;;27.73;8.88;;;;;;;14.89;64.06;100029.09;4925405;29;20166;-73
2023/09/20 04:12:38;;;;;;;31.35;8.68;;;;;;;14.90;63.87;100015.06;4924370;29;20139;-74
2023/09/20 04:15:07;;;;;;;21.70;9.45;;;;;;;15.08;63.43;100028.66;4926743;29;20079;-73
2023/09/20 04:17:35;;;;;;;20.42;8.48;;;;;;;15.09;63.12;100020.75;4926142;29;20040;-72
2023/09/20 04:20:06;;;;;;;28.98;9.35;;;;;;;15.09;63.14;99998.94;4937131;28;20067;-72
2023/09/20 04:22:36;;;;;;;25.17;9.23;;;;;;;15.39;62.42;100017.41;4906093;29;20095;-73
2023/09/20 04:25:05;;;;;;;21.13;8.65;;;;;;;15.74;62.41;100034.84;4937252;28;20107;-75
2023/09/20 04:27:34;;;;;;;23.73;8.88;;;;;;;16.04;61.92;100006.09;4904164;29;20178;-72
2023/09/20 04:30:00;;;;;;;25.92;8.77;;;;;;;16.42;61.50;100006.75;4925963;29;20130;-72
2023/09/20 04:32:33;;;;;;;23.35;8.70;;;;;;;16.83;60.59;100029.16;4924930;29;20066;-71
2023/09/20 04:35:02;;;;;;;23.52;8.35;;;;;;;16.91;60.21;99997.38;4927553;29;20122;-72
2023/09/20 04:37:31;;;;;;;34.05;9.23;;;;;;;17.23;59.28;100030.53;4929445;29;20083;-71
2023/09/20 04:39:57;;;;;;;18.95;8.68;;;;;;;17.27;58.92;100032.16;4928300;29;20043;-72
2023/09/20 04:42:23;;;;;;;18.98;8.02;;;;;;;17.29;58.51;100008.47;4942255;28;20146;-72
2023/09/20 04:44:49;;;;;;;22.85;7.78;;;;;;;17.61;58.18;99967.03;4928473;29;20054;-72
2023/09/20 04:47:17;;;;;;;20.40;7.78;;;;;;;18.98;57.65;99999.69;4927831;29;20099;-69
2023/09/20 04:49:44;;;;;;;26.02;7.70;;;;;;;20.28;55.67;99996.78;4925741;29;20050;-74
2023/09/20 04:52:15;;;;;;;20.27;7.68;;;;;;;21.22;53.62;99994.06;4918636;29;20051;-71
2023/09/20 04:54:44;;;;;;;23.67;7.82;;;;;;;22.15;52.04;99995.53;4926454;29;20078;-71
2023/09/20 04:57:13;;;;;;;19.55;7.78;;;;;;;23.00;50.10;99993.50;4944069;28;20520;-71
2023/09/20 04:59:42;;;;;;;28.75;8.38;;;;;;;23.86;47.89;99989.34;4929395;29;20050;-72
2023/09/20 05:02:09;;;;;;;21.15;8.23;;;;;;;24.65;46.30;99979.13;4923103;29;20040;-72
2023/09/20 05:04:37;;;;;;;22.38;7.63;;;;;;;25.49;43.80;99998.44;4927214;29;20044;-72
2023/09/20 05:07:06;;;;;;;25.80;7.50;;;;;;;25.99;42.60;99992.38;4907761;29;20047;-72
2023/09/20 05:09:36;;;;;;;17.73;7.97;;;;;;;26.31;40.93;99991.94;4940677;28;20035;-73
2023/09/20 05:12:09;;;;;;;23.40;8.15;;;;;;;27.17;39.53;99992.75;4925731;29;20115;-72
2023/09/20 05:14:36;;;;;;;21.38;7.88;;;;;;;27.60;37.02;99979.75;4924446;29;20071;-73
2023/09/20 05:17:04;;;;;;;24.85;8.32;;;;;;;27.93;36.77;99994.16;4925437;29;20075;-73
2023/09/20 05:19:30;;;;;;;19.05;7.60;;;;;;;28.57;35.49;99979.25;4912764;29;20722;-73
2023/09/20 05:21:58;;;;;;;17.00;7.78;;;;;;;29.06;34.46;99993.09;4929086;29;20470;-72
2023/09/20 05:24:25;;;;;;;25.85;8.02;;;;;;;29.49;33.49;99985.09;4912815;29;20561;-72
2023/09/20 05:26:51;;;;;;;21.27;7.82;;;;;;;30.08;32.81;99988.13;4941452;28;20047;-73
2023/09/20 05:29:18;;;;;;;22.38;7.45;;;;;;;30.70;31.41;99982.63;4927889;29;20063;-71
2023/09/20 05:31:44;;;;;;;12.98;7.13;;;;;;;31.28;30.68;99987.19;4912057;29;20036;-71
2023/09/20 05:34:11;;;;;;;12.55;6.95;;;;;;;31.68;29.63;99982.53;4929085;29;20466;-72
2023/09/20 05:36:37;;;;;;;14.23;7.72;;;;;;;32.34;28.50;99975.34;4926649;29;20055;-73
2023/09/20 05:39:06;;;;;;;14.00;7.45;;;;;;;32.88;27.92;99966.50;4928573;29;20107;-73
2023/09/20 05:41:34;;;;;;;13.65;6.93;;;;;;;33.45;26.97;99989.53;4921298;29;20122;-73
2023/09/20 05:44:00;;;;;;;14.65;7.75;;;;;;;33.28;26.21;99956.22;4939541;28;20066;-73
2023/09/20 05:46:26;;;;;;;22.08;7.88;;;;;;;33.74;25.97;99964.09;4929048;29;20069;-74
2023/09/20 05:48:52;;;;;;;17.52;6.80;;;;;;;33.90;25.10;99982.25;4929358;28;20047;-74
2023/09/20 05:51:18;;;;;;;14.52;6.32;;;;;;;33.85;25.12;99969.22;4927467;29;20043;-75
2023/09/20 05:53:50;;;;;;;13.57;6.95;;;;;;;34.59;24.69;99976.75;4939548;28;20054;-74
2023/09/20 05:56:18;;;;;;;12.43;6.80;;;;;;;35.01;24.18;99977.66;4926964;29;20118;-75
2023/09/20 05:58:44;;;;;;;13.70;6.85;;;;;;;35.80;22.50;99987.03;4928138;29;20054;-73
2023/09/20 06:01:12;;;;;;;11.20;7.05;;;;;;;36.07;22.29;99988.47;4930774;29;20466;-74
2023/09/20 06:03:39;;;;;;;12.88;6.45;;;;;;;35.96;22.37;99927.44;4921636;29;20047;-74
2023/09/20 06:06:07;;;;;;;11.35;6.40;;;;;;;36.62;21.71;99989.38;4941118;28;20047;-74
2023/09/20 06:08:35;;;;;;;11.20;6.82;;;;;;;36.68;21.46;99973.44;4924086;29;21586;-69
2023/09/20 06:11:04;;;;;;;11.65;6.63;;;;;;;37.11;20.80;99981.06;4926154;29;20087;-71
2023/09/20 06:13:32;;;;;;;11.18;6.47;;;;;;;36.83;20.84;99974.31;4922378;29;20098;-73
2023/09/20 06:15:59;;;;;;;11.50;6.32;;;;;;;37.08;20.46;99966.84;4925692;29;20678;-72
2023/09/20 06:18:26;;;;;;;10.07;6.15;;;;;;;37.41;20.54;99981.94;4927807;29;20138;-71
2023/09/20 06:20:55;;;;;;;10.88;6.63;;;;;;;37.47;19.73;99942.44;4931580;29;20048;-71
2023/09/20 06:23:25;;;;;;;9.55;6.72;;;;;;;37.76;19.97;99989.59;4940451;28;20031;-72
2023/09/20 06:25:53;;;;;;;;;;;;;;;38.12;19.57;99975.28;4942429;28;20670;-74
2023/09/20 06:28:19;;;;;;;14.82;7.22;;;;;;;38.45;19.50;99993.00;4940000;28;19934;-69
2023/09/20 06:30:47;;;;;;;11.30;7.03;;;;;;;37.80;19.65;99956.47;4925846;29;20521;-71
2023/09/20 06:33:13;;;;;;;8.40;6.10;;;;;;;37.84;18.88;99965.06;4941476;28;20047;-71
2023/09/20 06:35:40;;;;;;;13.20;6.57;;;;;;;38.67;19.16;99991.13;4941393;28;20047;-71
2023/09/20 06:38:07;;;;;;;9.73;5.93;;;;;;;39.52;18.04;99984.97;4943200;28;20044;-71
2023/09/20 06:40:39;;;;;;;8.93;6.47;;;;;;;39.79;17.62;99958.78;4926240;29;20055;-71
2023/09/20 06:43:07;;;;;;;9.98;6.38;;;;;;;40.10;17.30;99990.13;4938909;28;20389;-72
2023/09/20 06:45:37;;;;;;;10.52;6.65;;;;;;;39.90;17.64;99993.59;4935477;28;20039;-71
2023/09/20 06:48:05;;;;;;;7.15;6.45;;;;;;;39.23;17.89;99981.41;4939087;28;20067;-71
2023/09/20 06:50:32;;;;;;;12.00;6.40;;;;;;;39.33;17.09;99990.09;4937881;28;20047;-71
2023/09/20 06:52:59;;;;;;;9.32;6.60;;;;;;;39.60;17.10;99991.13;4925299;29;20507;-71
2023/09/20 06:55:26;;;;;;;10.70;6.88;;;;;;;40.27;16.78;99974.28;4923675;29;20090;-72
2023/09/20 06:57:54;;;;;;;10.63;6.93;;;;;;;40.73;16.40;99961.81;4926940;29;20066;-74
2023/09/20 07:00:25;;;;;;;12.25;6.70;;;;;;;40.91;16.49;99990.38;4925686;29;20043;-75
2023/09/20 07:02:55;;;;;;;10.90;6.72;;;;;;;41.85;15.88;99962.94;4927674;29;20039;-75
2023/09/20 07:05:24;;;;;;;7.25;6.03;;;;;;;42.77;15.38;99991.91;4922292;29;20048;-75
2023/09/20 07:07:51;;;;;;;11.00;6.72;;;;;;;42.50;14.76;99988.53;4939678;28;20043;-74
2023/09/20 07:10:18;;;;;;;12.25;6.53;;;;;;;41.99;15.85;99999.28;4926808;29;20039;-75
2023/09/20 07:12:45;;;;;;;9.20;6.55;;;;;;;42.47;15.21;99989.84;4941991;28;20360;-74
2023/09/20 07:15:24;;;;;;;8.38;6.97;;;;;;;43.51;14.22;99974.88;4924808;29;20043;-73
2023/09/20 07:18:07;;;;;;;8.77;6.70;;;;;;;43.57;13.73;99997.78;4941126;28;20047;-75
2023/09/20 07:20:36;;;;;;;10.63;6.38;;;;;;;43.69;13.79;99990.50;4926477;29;20094;-74
2023/09/20 07:23:02;;;;;;;10.35;6.35;;;;;;;43.85;13.90;99986.31;4927111;29;20078;-74
2023/09/20 07:25:29;;;;;;;10.73;6.65;;;;;;;44.31;13.74;99991.44;4925464;29;20498;-75
2023/09/20 07:27:57;;;;;;;10.05;6.65;;;;;;;44.19;13.35;99981.25;4942990;28;20082;-75
2023/09/20 07:30:23;;;;;;;15.98;7.25;;;;;;;43.81;13.31;99982.38;4926869;29;20043;-74
2023/09/20 07:32:51;;;;;;;14.80;7.00;;;;;;;43.43;13.36;99973.28;4927411;29;20091;-75
2023/09/20 07:35:26;;;;;;;11.20;7.70;;;;;;;43.36;13.44;99997.16;4927238;29;20114;-77
2023/09/20 07:37:56;;;;;;;11.43;6.43;;;;;;;44.37;13.50;99965.81;4927017;29;20047;-73
2023/09/20 07:40:29;;;;;;;;;;;;;;;44.82;13.19;99983.72;4942437;28;20529;-77
2023/09/20 07:43:10;;;;;;;10.13;6.70;;;;;;;45.36;12.85;99972.69;4924230;29;20650;-74
2023/09/20 07:45:39;;;;;;;11.15;6.90;;;;;;;45.82;12.70;99975.59;4941440;28;20042;-73
2023/09/20 07:48:13;;;;;;;13.57;7.05;;;;;;;46.19;12.44;99970.84;4942782;28;20375;-80
2023/09/20 07:50:51;;;;;;;12.57;7.45;;;;;;;46.65;12.34;99984.59;4944644;28;20031;-80
2023/09/20 07:53:20;;;;;;;11.05;6.43;;;;;;;46.92;11.98;99957.28;4928951;29;20043;-81
2023/09/20 07:55:57;;;;;;;;;;;;;;;47.40;11.41;99987.16;4927657;29;20483;-76
2023/09/20 07:58:23;;;;;;;12.18;7.05;;;;;;;47.28;11.53;99966.09;4924783;29;20400;-79
2023/09/20 08:00:52;;;;;;;13.07;7.03;;;;;;;47.03;11.34;99961.88;4921514;28;20509;-79
2023/09/20 08:03:20;;;;;;;10.88;6.55;;;;;;;46.56;11.64;99981.44;4925862;29;20682;-78
2023/09/20 08:05:48;;;;;;;10.50;6.75;;;;;;;45.45;11.62;99964.09;4925340;29;20134;-79
2023/09/20 08:08:14;;;;;;;9.35;6.57;;;;;;;44.57;12.27;99992.97;4932432;29;20238;-77
2023/09/20 08:10:41;;;;;;;14.38;6.68;;;;;;;45.06;12.51;99984.59;4946605;28;20054;-74
2023/09/20 08:13:07;;;;;;;10.23;6.78;;;;;;;45.78;12.26;99976.34;4946902;28;20052;-76
2023/09/20 08:15:53;;;;;;;12.45;7.10;;;;;;;45.72;12.14;99970.75;4933022;29;20110;-76
2023/09/20 08:21:06;;;;;;;10.20;6.50;;;;;;;46.24;11.79;99976.44;4933099;29;20051;-80
2023/09/20 09:02:16;;;;;;;7.55;5.70;;;;;;;42.62;13.70;99943.00;4932231;29;20126;-74
2023/09/20 09:05:03;;;;;;;9.15;5.90;;;;;;;43.89;12.63;99945.59;4932607;29;20150;-75
2023/09/20 09:07:30;;;;;;;9.35;5.97;;;;;;;43.80;12.81;99956.03;4946954;28;20087;-74
2023/09/20 09:09:56;;;;;;;12.60;6.10;;;;;;;43.43;12.92;99961.50;4946128;28;20051;-75
2023/09/20 09:12:22;;;;;;;9.75;5.80;;;;;;;43.14;13.02;99956.50;4945529;28;20061;-76
2023/09/20 09:14:48;;;;;;;7.72;5.93;;;;;;;42.66;12.95;99944.25;4944637;28;20086;-74
2023/09/20 09:17:16;;;;;;;9.50;5.80;;;;;;;42.36;13.37;99941.28;4903790;29;21389;-75
2023/09/20 09:19:42;;;;;;;9.98;6.15;;;;;;;41.50;13.31;99895.03;4928326;29;20051;-71
2023/09/20 09:22:10;;;;;;;8.93;5.28;;;;;;;41.37;14.12;99926.78;4929488;29;20506;-76
2023/09/20 09:24:45;;;;;;;10.10;5.82;;;;;;;41.33;13.95;99917.34;4930155;29;20518;-73
2023/09/20 09:27:12;;;;;;;10.55;6.03;;;;;;;42.44;13.19;99938.34;4928453;29;20035;-75
2023/09/20 09:29:38;;;;;;;15.30;6.15;;;;;;;42.92;12.53;99949.78;4940369;28;20043;-76
2023/09/20 09:32:05;;;;;;;8.75;5.13;;;;;;;42.53;13.01;99936.97;4943910;28;20107;-78
2023/09/20 09:34:31;;;;;;;6.90;6.05;;;;;;;42.39;13.08;99941.72;4930150;29;20059;-78
2023/09/20 09:36:57;;;;;;;10.90;6.35;;;;;;;42.00;13.16;99938.13;4913901;29;20454;-76
2023/09/20 09:39:25;;;;;;;14.63;6.45;;;;;;;42.60;12.92;99945.97;4930006;29;20044;-76
2023/09/20 09:41:52;;;;;;;8.73;6.32;;;;;;;42.41;13.14;99919.63;4933250;29;20040;-78
2023/09/20 09:44:20;;;;;;;10.88;6.63;;;;;;;42.05;13.15;99921.94;4941977;28;20612;-77
2023/09/20 09:46:46;;;;;;;9.30;5.82;;;;;;;41.99;13.40;99947.38;4930292;29;20044;-78
2023/09/20 09:49:12;;;;;;;17.30;6.57;;;;;;;41.67;13.33;99912.63;4929212;29;20072;-77
2023/09/20 09:51:45;;;;;;;12.05;5.90;;;;;;;41.24;13.58;99921.31;4932099;29;20537;-73
2023/09/20 09:54:15;;;;;;;8.90;5.43;;;;;;;40.82;13.43;99935.22;4934960;29;20048;-85
2023/09/20 09:56:42;;;;;;;7.05;5.70;;;;;;;40.26;14.12;99920.03;4932444;29;20043;-79
2023/09/20 09:59:11;;;;;;;9.80;6.13;;;;;;;40.70;14.43;99915.91;4942640;28;20126;-83
2023/09/20 10:01:39;;;;;;;7.43;5.65;;;;;;;40.98;13.94;99901.19;4942778;28;20043;-78
2023/09/20 10:04:10;;;;;;;10.40;5.90;;;;;;;40.48;14.01;99910.63;4909355;29;20107;-74
2023/09/20 10:06:56;;;;;;;14.32;5.88;;;;;;;38.89;14.64;99932.22;4930894;29;20043;-75
2023/09/20 10:09:26;;;;;;;7.65;6.05;;;;;;;37.25;15.41;99901.63;4941976;28;20059;-77
2023/09/20 10:11:54;;;;;;;10.75;5.78;;;;;;;36.15;16.71;99926.19;4929457;29;20143;-76
2023/09/20 10:14:22;;;;;;;10.80;5.90;;;;;;;34.64;17.83;99881.72;4915530;29;20055;-78
2023/09/20 10:16:49;;;;;;;11.95;6.07;;;;;;;33.73;18.70;99916.53;4907134;29;20039;-81
2023/09/20 10:19:16;;;;;;;8.75;5.95;;;;;;;32.43;19.38;99853.31;4916657;29;20040;-79
2023/09/20 10:22:08;;;;;;;13.15;6.00;;;;;;;31.82;20.40;99931.00;4914302;29;20051;-80
2023/09/20 10:24:50;;;;;;;11.80;6.70;;;;;;;30.70;21.87;99932.47;4909272;29;20134;-77
2023/09/20 10:27:17;;;;;;;10.02;6.55;;;;;;;30.14;22.87;99929.41;4920961;29;20107;-75
2023/09/20 10:30:09;;;;;;;10.35;6.30;;;;;;;29.82;23.35;99934.91;4920791;29;20071;-76
2023/09/20 10:32:54;;;;;;;12.00;6.35;;;;;;;29.41;23.71;99935.72;4909722;29;20056;-76
2023/09/20 10:35:30;;;;;;;10.50;6.15;;;;;;;29.01;24.11;99928.41;4921203;29;20143;-75
2023/09/20 10:38:20;;;;;;;10.90;6.30;;;;;;;28.72;24.52;99926.28;4898588;29;20078;-77
2023/09/20 10:40:48;;;;;;;8.68;6.13;;;;;;;28.44;25.08;99939.28;4922809;29;20063;-75
2023/09/20 10:43:19;;;;;;;14.70;6.25;;;;;;;28.28;25.80;99930.81;4923147;29;20138;-77
2023/09/20 10:45:53;;;;;;;13.77;6.55;;;;;;;28.10;25.81;99918.81;4911324;29;20040;-78
2023/09/20 10:48:26;;;;;;;10.90;6.15;;;;;;;27.88;26.24;99937.50;4922648;29;20071;-77
2023/09/20 10:50:57;;;;;;;15.60;6.57;;;;;;;27.48;26.27;99915.66;4911764;29;20063;-78
2023/09/20 10:53:46;;;;;;;11.30;5.85;;;;;;;27.15;26.97;99929.75;4902449;29;20039;-78
2023/09/20 10:56:53;;;;;;;12.40;6.68;;;;;;;26.91;27.15;99925.31;4923036;29;20074;-76
2023/09/20 10:59:22;;;;;;;11.35;6.38;;;;;;;26.73;27.49;99922.19;4919731;29;20040;-79
2023/09/20 11:01:51;;;;;;;9.77;6.38;;;;;;;26.73;28.04;99932.84;4904750;29;20044;-79
2023/09/20 11:04:18;;;;;;;10.70;6.13;;;;;;;26.49;28.21;99914.19;4907435;29;20075;-77
2023/09/20 11:06:52;;;;;;;9.77;6.10;;;;;;;26.17;28.11;99887.09;4907381;29;20152;-79
2023/09/20 11:09:20;;;;;;;12.02;6.63;;;;;;;26.23;28.45;99912.50;4906887;29;20077;-77
2023/09/20 11:11:47;;;;;;;8.43;5.78;;;;;;;26.15;28.43;99917.53;4893941;29;20040;-82
2023/09/20 11:14:14;;;;;;;12.45;5.88;;;;;;;26.07;28.61;99910.03;4936412;28;20123;-78
2023/09/20 11:16:43;;;;;;;10.02;6.25;;;;;;;26.14;29.04;99931.81;4929162;29;20546;-78
2023/09/20 11:19:12;;;;;;;10.98;6.25;;;;;;;25.99;28.71;99901.75;4927618;29;20074;-78
2023/09/20 11:21:41;;;;;;;11.57;6.25;;;;;;;25.95;29.22;99921.56;4924773;29;20043;-78
2023/09/20 11:24:15;;;;;;;12.30;5.88;;;;;;;25.92;29.44;99922.66;4937543;28;20043;-78
2023/09/20 11:26:45;;;;;;;10.25;6.38;;;;;;;25.75;29.47;99889.22;4920123;29;20134;-77
2023/09/20 11:29:11;;;;;;;15.15;6.47;;;;;;;25.42;29.49;99842.69;4940079;28;20075;-79
2023/09/20 11:31:38;;;;;;;14.95;6.50;;;;;;;25.87;29.88;99930.13;4926690;29;20090;-78
2023/09/20 11:34:05;;;;;;;12.88;5.88;;;;;;;25.41;29.86;99903.06;4942382;28;20103;-78
2023/09/20 11:36:44;;;;;;;11.43;5.40;;;;;;;25.55;29.84;99914.63;4915754;29;20036;-77
2023/09/20 11:39:22;;;;;;;17.30;5.93;;;;;;;25.51;29.95;99924.59;4936244;28;20131;-78
2023/09/20 11:41:49;;;;;;;7.80;5.60;;;;;;;25.39;29.92;99909.47;4926364;29;20039;-79
2023/09/20 11:44:20;;;;;;;10.30;5.35;;;;;;;25.22;29.80;99905.28;4904492;29;20047;-78
2023/09/20 11:46:57;;;;;;;13.05;5.80;;;;;;;25.31;29.79;99911.78;4926066;29;20050;-79
2023/09/20 11:49:24;;;;;;;12.13;5.43;;;;;;;25.22;29.87;99895.50;4927996;29;20046;-77
2023/09/20 11:51:51;;;;;;;11.20;5.35;;;;;;;25.26;29.38;99902.34;4916036;29;20047;-78
2023/09/20 11:54:17;;;;;;;10.02;5.05;;;;;;;25.30;29.51;99910.09;4943254;28;20047;-78
2023/09/20 11:56:47;;;;;;;10.73;6.35;;;;;;;25.27;29.24;99911.16;4942125;28;20056;-78
2023/09/20 11:59:15;;;;;;;11.70;4.77;;;;;;;24.97;29.60;99861.72;4936138;29;20055;-77
2023/09/20 12:01:41;;;;;;;14.00;5.70;;;;;;;24.82;29.47;99853.00;4934417;29;20532;-76
2023/09/20 12:04:08;;;;;;;10.40;5.72;;;;;;;25.06;29.61;99901.03;4932421;29;20125;-76
2023/09/20 12:06:35;;;;;;;13.95;5.35;;;;;;;25.08;29.32;99903.56;4932223;29;20044;-75
2023/09/20 12:09:04;;;;;;;12.30;5.47;;;;;;;25.02;29.60;99890.72;4939493;29;20513;-75
2023/09/20 12:11:32;;;;;;;14.32;5.05;;;;;;;24.84;29.45;99876.84;4930877;29;20051;-76
2023/09/20 12:13:58;;;;;;;7.88;4.65;;;;;;;24.95;29.61;99903.56;4944095;28;20538;-74
2023/09/20 12:16:24;;;;;;;9.82;5.20;;;;;;;24.73;29.90;99882.88;4946802;28;20059;-74